sensor_id;sensor_type;location;lat;lon;timestamp;pressure;altitude;pressure_sealevel;temperature;humidity
32033;BME280;31720;52.638;9.216;2023-01-27T00:02:37;102076.72;;;2.39;100.00
32033;BME280;31720;52.638;9.216;2023-01-27T00:05:38;102075.00;;;2.46;100.00
32033;BME280;31720;52.638;9.216;2023-01-27T00:08:40;102075.84;;;2.49;100.00
32033;BME280;31720;52.638;9.216;2023-01-27T00:11:41;102085.38;;;2.49;100.00
32033;BME280;31720;52.638;9.216;2023-01-27T00:15:02;102085.38;;;2.50;100.00
32033;BME280;31720;52.638;9.216;2023-01-27T00:18:04;102079.31;;;2.48;100.00
32033;BME280;31720;52.638;9.216;2023-01-27T00:21:05;102081.06;;;2.46;100.00
32033;BME280;31720;52.638;9.216;2023-01-27T00:24:24;102079.34;;;2.54;100.00
32033;BME280;31720;52.638;9.216;2023-01-27T00:27:38;102086.25;;;2.57;100.00
32033;BME280;31720;52.638;9.216;2023-01-27T00:30:41;102081.06;;;2.57;100.00
32033;BME280;31720;52.638;9.216;2023-01-27T00:33:42;102088.84;;;2.62;100.00
32033;BME280;31720;52.638;9.216;2023-01-27T00:36:48;102083.66;;;2.59;100.00
32033;BME280;31720;52.638;9.216;2023-01-27T00:39:49;102081.94;;;2.58;100.00
32033;BME280;31720;52.638;9.216;2023-01-27T00:42:51;102082.78;;;2.57;100.00
32033;BME280;31720;52.638;9.216;2023-01-27T00:45:53;102081.06;;;2.60;100.00
32033;BME280;31720;52.638;9.216;2023-01-27T00:48:55;102093.16;;;2.63;100.00
32033;BME280;31720;52.638;9.216;2023-01-27T00:51:57;102083.69;;;2.65;100.00
32033;BME280;31720;52.638;9.216;2023-01-27T00:54:58;102092.34;;;2.64;100.00
32033;BME280;31720;52.638;9.216;2023-01-27T00:58:00;102090.59;;;2.66;100.00
32033;BME280;31720;52.638;9.216;2023-01-27T01:01:04;102094.94;;;2.64;100.00
32033;BME280;31720;52.638;9.216;2023-01-27T01:04:06;102095.78;;;2.66;100.00
32033;BME280;31720;52.638;9.216;2023-01-27T01:07:07;102101.84;;;2.69;100.00
32033;BME280;31720;52.638;9.216;2023-01-27T01:10:09;102095.78;;;2.69;100.00
32033;BME280;31720;52.638;9.216;2023-01-27T01:13:10;102105.31;;;2.68;100.00
32033;BME280;31720;52.638;9.216;2023-01-27T01:16:15;102096.66;;;2.66;100.00
32033;BME280;31720;52.638;9.216;2023-01-27T01:19:17;102098.38;;;2.69;100.00
32033;BME280;31720;52.638;9.216;2023-01-27T01:22:18;102107.91;;;2.68;100.00
32033;BME280;31720;52.638;9.216;2023-01-27T01:25:20;102105.31;;;2.68;100.00
32033;BME280;31720;52.638;9.216;2023-01-27T01:28:22;102107.03;;;2.65;100.00
32033;BME280;31720;52.638;9.216;2023-01-27T01:31:24;102107.88;;;2.71;100.00
32033;BME280;31720;52.638;9.216;2023-01-27T01:34:26;102114.81;;;2.72;100.00
32033;BME280;31720;52.638;9.216;2023-01-27T01:37:28;102110.50;;;2.73;100.00
32033;BME280;31720;52.638;9.216;2023-01-27T01:40:29;102114.81;;;2.72;100.00
32033;BME280;31720;52.638;9.216;2023-01-27T01:43:30;102113.09;;;2.73;100.00
32033;BME280;31720;52.638;9.216;2023-01-27T01:46:33;102115.69;;;2.74;100.00
32033;BME280;31720;52.638;9.216;2023-01-27T01:49:38;102116.56;;;2.75;100.00
32033;BME280;31720;52.638;9.216;2023-01-27T01:52:40;102125.22;;;2.80;100.00
32033;BME280;31720;52.638;9.216;2023-01-27T01:55:42;102111.38;;;2.79;100.00
32033;BME280;31720;52.638;9.216;2023-01-27T01:58:44;102122.59;;;2.82;100.00
32033;BME280;31720;52.638;9.216;2023-01-27T02:01:49;102116.56;;;2.78;100.00
32033;BME280;31720;52.638;9.216;2023-01-27T02:04:54;102121.75;;;2.78;100.00
32033;BME280;31720;52.638;9.216;2023-01-27T02:07:58;102116.56;;;2.79;100.00
32033;BME280;31720;52.638;9.216;2023-01-27T02:11:02;102113.09;;;2.80;100.00
32033;BME280;31720;52.638;9.216;2023-01-27T02:14:03;102117.41;;;2.80;100.00
32033;BME280;31720;52.638;9.216;2023-01-27T02:17:06;102113.09;;;2.79;100.00
32033;BME280;31720;52.638;9.216;2023-01-27T02:20:13;102111.34;;;2.76;100.00
32033;BME280;31720;52.638;9.216;2023-01-27T02:23:27;102119.16;;;2.78;100.00
32033;BME280;31720;52.638;9.216;2023-01-27T02:26:37;102114.81;;;2.77;100.00
32033;BME280;31720;52.638;9.216;2023-01-27T02:29:40;102106.19;;;2.79;100.00
32033;BME280;31720;52.638;9.216;2023-01-27T02:32:41;102120.03;;;2.78;100.00
32033;BME280;31720;52.638;9.216;2023-01-27T02:35:50;102112.25;;;2.78;100.00
32033;BME280;31720;52.638;9.216;2023-01-27T02:38:57;102123.50;;;2.77;100.00
32033;BME280;31720;52.638;9.216;2023-01-27T02:42:03;102119.16;;;2.78;100.00
32033;BME280;31720;52.638;9.216;2023-01-27T02:45:06;102122.63;;;2.78;100.00
32033;BME280;31720;52.638;9.216;2023-01-27T02:48:08;102131.25;;;2.80;100.00
32033;BME280;31720;52.638;9.216;2023-01-27T02:51:09;102120.88;;;2.80;100.00
32033;BME280;31720;52.638;9.216;2023-01-27T02:54:10;102126.94;;;2.83;100.00
32033;BME280;31720;52.638;9.216;2023-01-27T02:57:13;102125.22;;;2.86;100.00
32033;BME280;31720;52.638;9.216;2023-01-27T03:00:15;102131.28;;;2.82;100.00
32033;BME280;31720;52.638;9.216;2023-01-27T03:03:16;102125.19;;;2.82;100.00
32033;BME280;31720;52.638;9.216;2023-01-27T03:06:18;102125.19;;;2.82;100.00
32033;BME280;31720;52.638;9.216;2023-01-27T03:09:20;102132.13;;;2.84;100.00
32033;BME280;31720;52.638;9.216;2023-01-27T03:12:23;102134.72;;;2.84;100.00
32033;BME280;31720;52.638;9.216;2023-01-27T03:15:24;102126.94;;;2.84;100.00
32033;BME280;31720;52.638;9.216;2023-01-27T03:18:43;102139.06;;;2.85;100.00
32033;BME280;31720;52.638;9.216;2023-01-27T03:21:46;102136.47;;;2.84;100.00
32033;BME280;31720;52.638;9.216;2023-01-27T03:24:50;102141.66;;;2.84;100.00
32033;BME280;31720;52.638;9.216;2023-01-27T03:27:52;102139.06;;;2.84;100.00
32033;BME280;31720;52.638;9.216;2023-01-27T03:30:58;102141.66;;;2.87;100.00
32033;BME280;31720;52.638;9.216;2023-01-27T03:33:59;102139.94;;;2.87;100.00
32033;BME280;31720;52.638;9.216;2023-01-27T03:37:00;102139.06;;;2.93;100.00
32033;BME280;31720;52.638;9.216;2023-01-27T03:40:19;102140.78;;;2.89;100.00
32033;BME280;31720;52.638;9.216;2023-01-27T03:43:40;102146.88;;;2.87;100.00
32033;BME280;31720;52.638;9.216;2023-01-27T03:46:58;102152.06;;;2.91;100.00
32033;BME280;31720;52.638;9.216;2023-01-27T03:49:59;102154.63;;;2.90;100.00
32033;BME280;31720;52.638;9.216;2023-01-27T03:53:01;102152.91;;;2.93;100.00
32033;BME280;31720;52.638;9.216;2023-01-27T03:56:06;102159.00;;;2.95;100.00
32033;BME280;31720;52.638;9.216;2023-01-27T03:59:08;102164.16;;;2.98;100.00
32033;BME280;31720;52.638;9.216;2023-01-27T04:02:10;102151.19;;;2.98;100.00
32033;BME280;31720;52.638;9.216;2023-01-27T04:05:29;102164.16;;;2.98;100.00
32033;BME280;31720;52.638;9.216;2023-01-27T04:08:47;102166.75;;;2.98;100.00
32033;BME280;31720;52.638;9.216;2023-01-27T04:11:49;102161.59;;;3.00;100.00
32033;BME280;31720;52.638;9.216;2023-01-27T04:14:59;102162.44;;;2.99;100.00
32033;BME280;31720;52.638;9.216;2023-01-27T04:18:00;102165.91;;;2.98;100.00
32033;BME280;31720;52.638;9.216;2023-01-27T04:21:01;102168.50;;;2.98;100.00
32033;BME280;31720;52.638;9.216;2023-01-27T04:24:04;102170.22;;;3.02;100.00
32033;BME280;31720;52.638;9.216;2023-01-27T04:27:08;102169.38;;;3.03;100.00
32033;BME280;31720;52.638;9.216;2023-01-27T04:30:12;102177.16;;;3.06;100.00
32033;BME280;31720;52.638;9.216;2023-01-27T04:33:13;102172.84;;;3.05;100.00
32033;BME280;31720;52.638;9.216;2023-01-27T04:36:15;102167.66;;;3.00;100.00
32033;BME280;31720;52.638;9.216;2023-01-27T04:39:17;102178.88;;;2.99;100.00
32033;BME280;31720;52.638;9.216;2023-01-27T04:42:18;102179.75;;;3.03;100.00
32033;BME280;31720;52.638;9.216;2023-01-27T04:45:21;102184.06;;;3.02;100.00
32033;BME280;31720;52.638;9.216;2023-01-27T04:48:22;102184.09;;;3.07;100.00
32033;BME280;31720;52.638;9.216;2023-01-27T04:51:24;102183.22;;;3.07;100.00
32033;BME280;31720;52.638;9.216;2023-01-27T04:54:26;102191.88;;;3.10;100.00
32033;BME280;31720;52.638;9.216;2023-01-27T04:57:27;102204.00;;;3.08;100.00
32033;BME280;31720;52.638;9.216;2023-01-27T05:00:30;102192.75;;;3.11;100.00
32033;BME280;31720;52.638;9.216;2023-01-27T05:03:31;102201.41;;;3.10;100.00
32033;BME280;31720;52.638;9.216;2023-01-27T05:06:33;102200.53;;;3.11;100.00
32033;BME280;31720;52.638;9.216;2023-01-27T05:09:34;102205.72;;;3.11;100.00
32033;BME280;31720;52.638;9.216;2023-01-27T05:12:35;102208.34;;;3.04;100.00
32033;BME280;31720;52.638;9.216;2023-01-27T05:15:38;102212.66;;;3.05;100.00
32033;BME280;31720;52.638;9.216;2023-01-27T05:18:40;102215.25;;;3.12;100.00
32033;BME280;31720;52.638;9.216;2023-01-27T05:21:42;102222.19;;;3.11;100.00
32033;BME280;31720;52.638;9.216;2023-01-27T05:24:43;102218.72;;;3.12;100.00
32033;BME280;31720;52.638;9.216;2023-01-27T05:27:45;102223.03;;;3.12;100.00
32033;BME280;31720;52.638;9.216;2023-01-27T05:30:47;102227.38;;;3.11;100.00
32033;BME280;31720;52.638;9.216;2023-01-27T05:33:50;102226.50;;;3.11;100.00
32033;BME280;31720;52.638;9.216;2023-01-27T05:36:51;102228.25;;;3.10;100.00
32033;BME280;31720;52.638;9.216;2023-01-27T05:39:53;102233.41;;;3.09;100.00
32033;BME280;31720;52.638;9.216;2023-01-27T05:42:54;102236.88;;;3.08;100.00
32033;BME280;31720;52.638;9.216;2023-01-27T05:46:05;102228.22;;;3.09;100.00
32033;BME280;31720;52.638;9.216;2023-01-27T05:49:06;102238.59;;;3.04;100.00
32033;BME280;31720;52.638;9.216;2023-01-27T05:52:08;102234.28;;;3.03;100.00
32033;BME280;31720;52.638;9.216;2023-01-27T05:55:09;102242.94;;;3.07;100.00
32033;BME280;31720;52.638;9.216;2023-01-27T05:58:11;102233.44;;;3.05;100.00
32033;BME280;31720;52.638;9.216;2023-01-27T06:01:15;102242.09;;;3.04;100.00
32033;BME280;31720;52.638;9.216;2023-01-27T06:04:17;102236.88;;;3.03;100.00
32033;BME280;31720;52.638;9.216;2023-01-27T06:07:18;102247.28;;;3.01;100.00
32033;BME280;31720;52.638;9.216;2023-01-27T06:10:20;102249.88;;;3.03;100.00
32033;BME280;31720;52.638;9.216;2023-01-27T06:13:22;102244.66;;;3.03;100.00
32033;BME280;31720;52.638;9.216;2023-01-27T06:16:25;102244.69;;;3.06;100.00
32033;BME280;31720;52.638;9.216;2023-01-27T06:19:26;102247.28;;;3.01;100.00
32033;BME280;31720;52.638;9.216;2023-01-27T06:22:27;102250.72;;;3.02;100.00
32033;BME280;31720;52.638;9.216;2023-01-27T06:25:29;102244.69;;;3.00;100.00
32033;BME280;31720;52.638;9.216;2023-01-27T06:28:30;102246.38;;;2.99;100.00
32033;BME280;31720;52.638;9.216;2023-01-27T06:31:33;102250.72;;;2.93;100.00
32033;BME280;31720;52.638;9.216;2023-01-27T06:34:34;102248.13;;;2.93;100.00
32033;BME280;31720;52.638;9.216;2023-01-27T06:37:35;102260.22;;;2.94;100.00
32033;BME280;31720;52.638;9.216;2023-01-27T06:40:37;102265.44;;;2.98;100.00
32033;BME280;31720;52.638;9.216;2023-01-27T06:43:38;102266.31;;;2.96;100.00
32033;BME280;31720;52.638;9.216;2023-01-27T06:46:41;102269.75;;;2.95;100.00
32033;BME280;31720;52.638;9.216;2023-01-27T06:49:43;102271.50;;;2.91;100.00
32033;BME280;31720;52.638;9.216;2023-01-27T06:52:44;102266.31;;;2.91;100.00
32033;BME280;31720;52.638;9.216;2023-01-27T06:55:45;102274.06;;;2.87;100.00
32033;BME280;31720;52.638;9.216;2023-01-27T06:58:47;102274.91;;;2.84;100.00
32033;BME280;31720;52.638;9.216;2023-01-27T07:01:49;102285.31;;;2.83;100.00
32033;BME280;31720;52.638;9.216;2023-01-27T07:04:51;102287.06;;;2.87;100.00
32033;BME280;31720;52.638;9.216;2023-01-27T07:07:52;102293.09;;;2.86;100.00
32033;BME280;31720;52.638;9.216;2023-01-27T07:10:54;102305.19;;;2.80;100.00
32033;BME280;31720;52.638;9.216;2023-01-27T07:13:55;102309.50;;;2.82;100.00
32033;BME280;31720;52.638;9.216;2023-01-27T07:16:57;102320.78;;;2.82;100.00
32033;BME280;31720;52.638;9.216;2023-01-27T07:19:59;102314.69;;;2.82;100.00
32033;BME280;31720;52.638;9.216;2023-01-27T07:23:02;102324.25;;;2.84;100.00
32033;BME280;31720;52.638;9.216;2023-01-27T07:26:04;102338.97;;;2.87;100.00
32033;BME280;31720;52.638;9.216;2023-01-27T07:29:05;102348.50;;;2.89;100.00
32033;BME280;31720;52.638;9.216;2023-01-27T07:32:07;102353.69;;;2.88;100.00
32033;BME280;31720;52.638;9.216;2023-01-27T07:35:09;102358.03;;;2.92;100.00
32033;BME280;31720;52.638;9.216;2023-01-27T07:38:10;102358.88;;;2.86;100.00
32033;BME280;31720;52.638;9.216;2023-01-27T07:41:11;102354.53;;;2.85;100.00
32033;BME280;31720;52.638;9.216;2023-01-27T07:44:13;102354.56;;;2.87;100.00
32033;BME280;31720;52.638;9.216;2023-01-27T07:47:16;102356.28;;;2.83;100.00
32033;BME280;31720;52.638;9.216;2023-01-27T07:50:19;102359.75;;;2.88;100.00
32033;BME280;31720;52.638;9.216;2023-01-27T07:53:20;102358.88;;;2.89;100.00
32033;BME280;31720;52.638;9.216;2023-01-27T07:56:21;102370.13;;;2.88;100.00
32033;BME280;31720;52.638;9.216;2023-01-27T07:59:23;102371.00;;;2.90;100.00
32033;BME280;31720;52.638;9.216;2023-01-27T08:02:25;102377.06;;;2.89;100.00
32033;BME280;31720;52.638;9.216;2023-01-27T08:05:28;102382.28;;;2.97;100.00
32033;BME280;31720;52.638;9.216;2023-01-27T08:08:32;102396.16;;;2.96;100.00
32033;BME280;31720;52.638;9.216;2023-01-27T08:11:34;102384.03;;;2.96;100.00
32033;BME280;31720;52.638;9.216;2023-01-27T08:14:35;102392.69;;;2.98;100.00
32033;BME280;31720;52.638;9.216;2023-01-27T08:17:38;102401.34;;;2.99;100.00
32033;BME280;31720;52.638;9.216;2023-01-27T08:20:39;102397.88;;;2.95;100.00
32033;BME280;31720;52.638;9.216;2023-01-27T08:23:41;102409.97;;;2.93;100.00
32033;BME280;31720;52.638;9.216;2023-01-27T08:26:42;102414.31;;;2.97;100.00
32033;BME280;31720;52.638;9.216;2023-01-27T08:29:43;102420.38;;;2.96;100.00
32033;BME280;31720;52.638;9.216;2023-01-27T08:32:47;102413.44;;;2.98;100.00
32033;BME280;31720;52.638;9.216;2023-01-27T08:35:48;102406.53;;;3.03;100.00
32033;BME280;31720;52.638;9.216;2023-01-27T08:38:50;102406.56;;;3.00;100.00
32033;BME280;31720;52.638;9.216;2023-01-27T08:41:51;102407.41;;;3.01;100.00
32033;BME280;31720;52.638;9.216;2023-01-27T08:44:53;102412.59;;;3.02;100.00
32033;BME280;31720;52.638;9.216;2023-01-27T08:47:55;102424.75;;;3.08;100.00
32033;BME280;31720;52.638;9.216;2023-01-27T08:50:58;102413.50;;;3.04;100.00
32033;BME280;31720;52.638;9.216;2023-01-27T08:53:59;102425.63;;;3.12;100.00
32033;BME280;31720;52.638;9.216;2023-01-27T08:57:01;102424.72;;;3.03;100.00
32033;BME280;31720;52.638;9.216;2023-01-27T09:00:04;102429.09;;;3.04;100.00
32033;BME280;31720;52.638;9.216;2023-01-27T09:03:07;102434.25;;;3.03;100.00
32033;BME280;31720;52.638;9.216;2023-01-27T09:06:11;102431.66;;;3.03;100.00
32033;BME280;31720;52.638;9.216;2023-01-27T09:09:13;102435.16;;;3.11;100.00
32033;BME280;31720;52.638;9.216;2023-01-27T09:12:14;102428.22;;;3.13;100.00
32033;BME280;31720;52.638;9.216;2023-01-27T09:15:16;102428.25;;;3.16;100.00
32033;BME280;31720;52.638;9.216;2023-01-27T09:18:19;102431.72;;;3.17;100.00
32033;BME280;31720;52.638;9.216;2023-01-27T09:21:21;102432.59;;;3.22;100.00
32033;BME280;31720;52.638;9.216;2023-01-27T09:24:22;102435.19;;;3.20;100.00
32033;BME280;31720;52.638;9.216;2023-01-27T09:27:24;102435.22;;;3.23;100.00
32033;BME280;31720;52.638;9.216;2023-01-27T09:30:27;102436.06;;;3.21;100.00
32033;BME280;31720;52.638;9.216;2023-01-27T09:33:30;102435.22;;;3.23;100.00
32033;BME280;31720;52.638;9.216;2023-01-27T09:36:32;102434.38;;;3.29;100.00
32033;BME280;31720;52.638;9.216;2023-01-27T09:39:39;102431.78;;;3.34;100.00
32033;BME280;31720;52.638;9.216;2023-01-27T09:42:57;102439.59;;;3.35;100.00
32033;BME280;31720;52.638;9.216;2023-01-27T09:46:26;102437.88;;;3.37;100.00
32033;BME280;31720;52.638;9.216;2023-01-27T09:49:44;102447.41;;;3.38;100.00
32033;BME280;31720;52.638;9.216;2023-01-27T09:53:14;102443.06;;;3.37;100.00
32033;BME280;31720;52.638;9.216;2023-01-27T09:56:37;102435.25;;;3.36;100.00
32033;BME280;31720;52.638;9.216;2023-01-27T10:00:05;102434.38;;;3.35;100.00
32033;BME280;31720;52.638;9.216;2023-01-27T10:03:26;102434.41;;;3.40;100.00
32033;BME280;31720;52.638;9.216;2023-01-27T10:06:50;102443.06;;;3.37;100.00
32033;BME280;31720;52.638;9.216;2023-01-27T10:13:36;102453.47;;;3.39;100.00
32033;BME280;31720;52.638;9.216;2023-01-27T10:17:02;102448.25;;;3.33;100.00
32033;BME280;31720;52.638;9.216;2023-01-27T10:20:23;102433.47;;;3.27;100.00
32033;BME280;31720;52.638;9.216;2023-01-27T10:23:37;102435.22;;;3.26;100.00
32033;BME280;31720;52.638;9.216;2023-01-27T10:26:43;102448.25;;;3.28;100.00
32033;BME280;31720;52.638;9.216;2023-01-27T10:29:51;102443.91;;;3.31;100.00
32033;BME280;31720;52.638;9.216;2023-01-27T10:32:58;102446.53;;;3.39;100.00
32033;BME280;31720;52.638;9.216;2023-01-27T10:36:09;102441.38;;;3.47;100.00
32033;BME280;31720;52.638;9.216;2023-01-27T10:39:17;102439.66;;;3.46;100.00
32033;BME280;31720;52.638;9.216;2023-01-27T10:42:29;102439.66;;;3.56;100.00
32033;BME280;31720;52.638;9.216;2023-01-27T10:45:35;102443.09;;;3.54;100.00
32033;BME280;31720;52.638;9.216;2023-01-27T10:48:43;102448.34;;;3.55;100.00
32033;BME280;31720;52.638;9.216;2023-01-27T10:51:49;102453.53;;;3.63;100.00
32033;BME280;31720;52.638;9.216;2023-01-27T10:54:58;102460.47;;;3.56;100.00
32033;BME280;31720;52.638;9.216;2023-01-27T10:58:05;102461.31;;;3.59;100.00
32033;BME280;31720;52.638;9.216;2023-01-27T11:01:12;102457.00;;;3.61;100.00
32033;BME280;31720;52.638;9.216;2023-01-27T11:04:19;102457.88;;;3.63;100.00
32033;BME280;31720;52.638;9.216;2023-01-27T11:07:22;102458.72;;;3.59;100.00
32033;BME280;31720;52.638;9.216;2023-01-27T11:10:32;102459.59;;;3.56;100.00
32033;BME280;31720;52.638;9.216;2023-01-27T11:13:36;102454.38;;;3.58;100.00
32033;BME280;31720;52.638;9.216;2023-01-27T11:16:41;102457.03;;;3.59;100.00
32033;BME280;31720;52.638;9.216;2023-01-27T11:19:52;102451.81;;;3.62;100.00
32033;BME280;31720;52.638;9.216;2023-01-27T11:22:59;102462.19;;;3.56;100.00
32033;BME280;31720;52.638;9.216;2023-01-27T11:26:11;102458.72;;;3.59;100.00
32033;BME280;31720;52.638;9.216;2023-01-27T11:29:20;102445.72;;;3.46;100.00
32033;BME280;31720;52.638;9.216;2023-01-27T11:32:32;102451.78;;;3.51;100.00
32033;BME280;31720;52.638;9.216;2023-01-27T11:35:36;102451.81;;;3.54;100.00
32033;BME280;31720;52.638;9.216;2023-01-27T11:38:38;102453.53;;;3.51;100.00
32033;BME280;31720;52.638;9.216;2023-01-27T11:41:44;102451.78;;;3.51;100.00
32033;BME280;31720;52.638;9.216;2023-01-27T11:44:49;102462.16;;;3.47;100.00
32033;BME280;31720;52.638;9.216;2023-01-27T11:47:57;102455.19;;;3.40;100.00
32033;BME280;31720;52.638;9.216;2023-01-27T11:51:00;102455.19;;;3.38;100.00
32033;BME280;31720;52.638;9.216;2023-01-27T11:54:05;102452.59;;;3.40;100.00
32033;BME280;31720;52.638;9.216;2023-01-27T11:57:17;102448.25;;;3.40;100.00
32033;BME280;31720;52.638;9.216;2023-01-27T12:00:22;102444.81;;;3.41;100.00
32033;BME280;31720;52.638;9.216;2023-01-27T12:03:36;102437.00;;;3.40;100.00
32033;BME280;31720;52.638;9.216;2023-01-27T12:06:46;102442.19;;;3.40;100.00
32033;BME280;31720;52.638;9.216;2023-01-27T12:09:49;102437.84;;;3.34;100.00
32033;BME280;31720;52.638;9.216;2023-01-27T12:12:51;102432.69;;;3.37;100.00
32033;BME280;31720;52.638;9.216;2023-01-27T12:15:55;102442.22;;;3.37;100.00
32033;BME280;31720;52.638;9.216;2023-01-27T12:19:01;102439.59;;;3.38;100.00
32033;BME280;31720;52.638;9.216;2023-01-27T12:22:08;102442.19;;;3.32;100.00
32033;BME280;31720;52.638;9.216;2023-01-27T12:25:17;102445.59;;;3.26;100.00
32033;BME280;31720;52.638;9.216;2023-01-27T12:28:31;102432.59;;;3.22;100.00
32033;BME280;31720;52.638;9.216;2023-01-27T12:31:43;102436.09;;;3.25;100.00
32033;BME280;31720;52.638;9.216;2023-01-27T12:34:48;102436.03;;;3.16;100.00
32033;BME280;31720;52.638;9.216;2023-01-27T12:37:55;102432.59;;;3.20;100.00
32033;BME280;31720;52.638;9.216;2023-01-27T12:40:59;102430.00;;;3.14;100.00
32033;BME280;31720;52.638;9.216;2023-01-27T12:44:14;102424.81;;;3.19;100.00
32033;BME280;31720;52.638;9.216;2023-01-27T12:47:22;102427.44;;;3.23;100.00
32033;BME280;31720;52.638;9.216;2023-01-27T12:50:26;102427.41;;;3.26;100.00
32033;BME280;31720;52.638;9.216;2023-01-27T12:53:27;102423.97;;;3.23;100.00
32033;BME280;31720;52.638;9.216;2023-01-27T12:56:31;102418.78;;;3.23;100.00
32033;BME280;31720;52.638;9.216;2023-01-27T12:59:44;102426.53;;;3.20;100.00
32033;BME280;31720;52.638;9.216;2023-01-27T13:02:48;102433.47;;;3.21;100.00
32033;BME280;31720;52.638;9.216;2023-01-27T13:05:52;102423.94;;;3.20;100.00
32033;BME280;31720;52.638;9.216;2023-01-27T13:08:54;102433.47;;;3.22;100.00
32033;BME280;31720;52.638;9.216;2023-01-27T13:12:00;102433.44;;;3.16;100.00
32033;BME280;31720;52.638;9.216;2023-01-27T13:15:13;102431.72;;;3.17;100.00
32033;BME280;31720;52.638;9.216;2023-01-27T13:18:18;102434.34;;;3.20;100.00
32033;BME280;31720;52.638;9.216;2023-01-27T13:21:23;102435.22;;;3.26;100.00
32033;BME280;31720;52.638;9.216;2023-01-27T13:24:32;102430.88;;;3.25;100.00
32033;BME280;31720;52.638;9.216;2023-01-27T13:27:38;102429.16;;;3.26;100.00
32033;BME280;31720;52.638;9.216;2023-01-27T13:30:46;102440.41;;;3.22;100.00
32033;BME280;31720;52.638;9.216;2023-01-27T13:33:51;102433.47;;;3.19;100.00
32033;BME280;31720;52.638;9.216;2023-01-27T13:36:58;102436.91;;;3.14;100.00
32033;BME280;31720;52.638;9.216;2023-01-27T13:40:04;102445.56;;;3.10;100.00
32033;BME280;31720;52.638;9.216;2023-01-27T13:43:10;102442.06;;;3.08;100.00
32033;BME280;31720;52.638;9.216;2023-01-27T13:46:20;102440.34;;;3.10;100.00
32033;BME280;31720;52.638;9.216;2023-01-27T13:49:30;102442.06;;;3.06;100.00
32033;BME280;31720;52.638;9.216;2023-01-27T13:52:33;102442.94;;;3.08;100.00
32033;BME280;31720;52.638;9.216;2023-01-27T13:55:51;102439.44;;;3.03;100.00
32033;BME280;31720;52.638;9.216;2023-01-27T13:59:07;102438.53;;;2.95;100.00
32033;BME280;31720;52.638;9.216;2023-01-27T14:02:41;102442.84;;;2.93;100.00
32033;BME280;31720;52.638;9.216;2023-01-27T14:05:57;102441.13;;;2.95;100.00
32033;BME280;31720;52.638;9.216;2023-01-27T14:09:13;102444.59;;;2.94;100.00
32033;BME280;31720;52.638;9.216;2023-01-27T14:12:25;102450.63;;;2.90;100.00
32033;BME280;31720;52.638;9.216;2023-01-27T14:15:35;102448.09;;;2.96;100.00
32033;BME280;31720;52.638;9.216;2023-01-27T14:18:43;102453.28;;;2.97;100.00
32033;BME280;31720;52.638;9.216;2023-01-27T14:21:51;102455.81;;;2.90;100.00
32033;BME280;31720;52.638;9.216;2023-01-27T14:24:57;102466.25;;;2.97;100.00
32033;BME280;31720;52.638;9.216;2023-01-27T14:28:08;102463.66;;;2.99;100.00
32033;BME280;31720;52.638;9.216;2023-01-27T14:31:18;102468.88;;;3.00;100.00
32033;BME280;31720;52.638;9.216;2023-01-27T14:34:30;102467.97;;;2.94;100.00
32033;BME280;31720;52.638;9.216;2023-01-27T14:37:42;102476.63;;;2.91;100.00
32033;BME280;31720;52.638;9.216;2023-01-27T14:40:56;102472.25;;;2.89;100.00
32033;BME280;31720;52.638;9.216;2023-01-27T14:44:03;102476.59;;;2.90;100.00
32033;BME280;31720;52.638;9.216;2023-01-27T14:47:14;102471.38;;;2.85;100.00
32033;BME280;31720;52.638;9.216;2023-01-27T14:50:24;102473.13;;;2.86;100.00
32033;BME280;31720;52.638;9.216;2023-01-27T14:53:41;102475.72;;;2.86;100.00
32033;BME280;31720;52.638;9.216;2023-01-27T14:56:57;102473.94;;;2.77;100.00
32033;BME280;31720;52.638;9.216;2023-01-27T15:00:11;102468.78;;;2.82;100.00
32033;BME280;31720;52.638;9.216;2023-01-27T15:03:43;102467.88;;;2.82;100.00
32033;BME280;31720;52.638;9.216;2023-01-27T15:06:54;102474.84;;;2.89;100.00
32033;BME280;31720;52.638;9.216;2023-01-27T15:10:04;102475.72;;;2.89;100.00
32033;BME280;31720;52.638;9.216;2023-01-27T15:13:35;102476.59;;;2.90;100.00
32033;BME280;31720;52.638;9.216;2023-01-27T15:16:50;102474.84;;;2.89;100.00
32033;BME280;31720;52.638;9.216;2023-01-27T15:20:18;102478.25;;;2.80;100.00
32033;BME280;31720;52.638;9.216;2023-01-27T15:23:44;102485.22;;;2.86;100.00
32033;BME280;31720;52.638;9.216;2023-01-27T15:26:51;102478.25;;;2.82;100.00
32033;BME280;31720;52.638;9.216;2023-01-27T15:29:53;102480.88;;;2.83;100.00
32033;BME280;31720;52.638;9.216;2023-01-27T15:32:55;102492.13;;;2.85;100.00
32033;BME280;31720;52.638;9.216;2023-01-27T15:36:15;102492.09;;;2.79;100.00
32033;BME280;31720;52.638;9.216;2023-01-27T15:39:19;102492.97;;;2.79;100.00
32033;BME280;31720;52.638;9.216;2023-01-27T15:42:20;102489.47;;;2.74;100.00
32033;BME280;31720;52.638;9.216;2023-01-27T15:45:27;102492.94;;;2.76;100.00
32033;BME280;31720;52.638;9.216;2023-01-27T15:48:32;102498.97;;;2.72;100.00
32033;BME280;31720;52.638;9.216;2023-01-27T15:51:35;102498.94;;;2.65;100.00
32033;BME280;31720;52.638;9.216;2023-01-27T15:54:40;102502.44;;;2.70;100.00
32033;BME280;31720;52.638;9.216;2023-01-27T15:57:42;102517.13;;;2.72;100.00
32033;BME280;31720;52.638;9.216;2023-01-27T16:00:49;102511.88;;;2.63;100.00
32033;BME280;31720;52.638;9.216;2023-01-27T16:04:03;102511.84;;;2.59;100.00
32033;BME280;31720;52.638;9.216;2023-01-27T16:07:18;102512.75;;;2.62;100.00
32033;BME280;31720;52.638;9.216;2023-01-27T16:10:28;102517.03;;;2.57;100.00
32033;BME280;31720;52.638;9.216;2023-01-27T16:13:30;102518.78;;;2.60;100.00
32033;BME280;31720;52.638;9.216;2023-01-27T16:16:33;102524.84;;;2.60;100.00